createdAt,value
2022-10-31T00:00:57.022Z,10.55
2022-10-31T00:01:56.984Z,10.53
2022-10-31T00:02:57.213Z,10.55
2022-10-31T00:03:56.877Z,10.68
2022-10-31T00:04:56.870Z,10.70
2022-10-31T00:05:56.836Z,10.76
2022-10-31T00:06:56.810Z,10.80
2022-10-31T00:07:56.783Z,10.76
2022-10-31T00:08:56.760Z,10.84
2022-10-31T00:09:56.737Z,10.80
2022-10-31T00:10:56.712Z,10.77
2022-10-31T00:11:56.691Z,10.78
2022-10-31T00:12:56.986Z,10.74
2022-10-31T00:13:56.638Z,10.71
2022-10-31T00:14:56.615Z,10.81
2022-10-31T00:15:56.620Z,10.77
2022-10-31T00:16:56.577Z,10.80
2022-10-31T00:17:56.772Z,10.74
2022-10-31T00:18:56.523Z,10.80
2022-10-31T00:19:56.519Z,10.83
2022-10-31T00:20:56.478Z,10.98
2022-10-31T00:21:56.460Z,10.98
2022-10-31T00:22:56.436Z,10.89
2022-10-31T00:23:56.411Z,10.81
2022-10-31T00:24:56.382Z,10.83
2022-10-31T00:25:56.407Z,10.65
2022-10-31T00:26:56.340Z,10.56
2022-10-31T00:27:56.468Z,10.65
2022-10-31T00:28:56.290Z,10.77
2022-10-31T00:29:56.278Z,10.81
2022-10-31T00:30:56.240Z,10.83
2022-10-31T00:31:56.226Z,10.84
2022-10-31T00:32:56.467Z,10.83
2022-10-31T00:33:56.173Z,10.81
2022-10-31T00:34:56.150Z,10.83
2022-10-31T00:35:56.145Z,10.84
2022-10-31T00:36:56.106Z,10.84
2022-10-31T00:37:56.083Z,10.83
2022-10-31T00:38:56.054Z,10.81
2022-10-31T00:39:56.035Z,10.77
2022-10-31T00:40:56.006Z,10.81
2022-10-31T00:41:55.990Z,10.77
2022-10-31T00:42:56.025Z,10.78
2022-10-31T00:43:55.947Z,10.77
2022-10-31T00:44:55.916Z,10.74
2022-10-31T00:45:55.909Z,10.63
2022-10-31T00:46:55.867Z,10.59
2022-10-31T00:47:55.987Z,10.43
2022-10-31T00:48:55.834Z,10.51
2022-10-31T00:49:55.802Z,10.47
2022-10-31T00:50:55.777Z,10.46
2022-10-31T00:51:55.765Z,10.30
2022-10-31T00:52:55.728Z,10.24
2022-10-31T00:53:55.702Z,10.28
2022-10-31T00:54:55.682Z,10.30
2022-10-31T00:55:55.665Z,10.26
2022-10-31T00:56:55.630Z,10.09
2022-10-31T00:57:55.692Z,10.14
2022-10-31T00:58:55.593Z,10.18
2022-10-31T00:59:55.563Z,10.25
2022-10-31T01:00:55.598Z,10.17
2022-10-31T01:01:55.661Z,10.21
2022-10-31T01:02:55.515Z,10.21
2022-10-31T01:03:55.468Z,10.18
2022-10-31T01:04:55.445Z,10.00
2022-10-31T01:05:55.424Z,10.03
2022-10-31T01:06:55.400Z,10.01
2022-10-31T01:07:55.373Z,9.91
2022-10-31T01:08:55.353Z,9.89
2022-10-31T01:09:55.326Z,9.94
2022-10-31T01:10:55.306Z,9.89
2022-10-31T01:11:55.284Z,9.82
2022-10-31T01:12:55.260Z,9.85
2022-10-31T01:13:55.233Z,9.91
2022-10-31T01:14:55.212Z,9.88
2022-10-31T01:15:55.191Z,9.88
2022-10-31T01:16:55.166Z,9.81
2022-10-31T01:17:55.147Z,9.82
2022-10-31T01:18:55.120Z,9.73
2022-10-31T01:19:55.108Z,9.71
2022-10-31T01:20:55.067Z,9.67
2022-10-31T01:21:55.052Z,9.58
2022-10-31T01:22:55.041Z,9.56
2022-10-31T01:23:55.004Z,9.58
2022-10-31T01:24:54.979Z,9.56
2022-10-31T01:25:54.956Z,9.61
2022-10-31T01:26:54.935Z,9.58
2022-10-31T01:27:54.904Z,9.48
2022-10-31T01:28:54.882Z,9.50
2022-10-31T01:29:54.885Z,9.45
2022-10-31T01:30:54.840Z,9.60
2022-10-31T01:31:54.817Z,9.67
2022-10-31T01:32:54.800Z,9.82
2022-10-31T01:33:54.767Z,9.83
2022-10-31T01:34:54.738Z,9.79
2022-10-31T01:35:54.716Z,9.86
2022-10-31T01:36:54.690Z,9.88
2022-10-31T01:37:54.671Z,9.88
2022-10-31T01:38:54.648Z,9.94
2022-10-31T01:39:54.619Z,9.83
2022-10-31T01:40:54.598Z,9.93
2022-10-31T01:41:54.584Z,9.73
2022-10-31T01:42:54.547Z,9.79
2022-10-31T01:43:54.535Z,9.75
2022-10-31T01:44:54.499Z,9.60
2022-10-31T01:45:54.480Z,9.61
2022-10-31T01:46:54.502Z,9.57
2022-10-31T01:47:54.433Z,9.58
2022-10-31T01:48:54.405Z,9.52
2022-10-31T01:49:54.383Z,9.45
2022-10-31T01:50:54.365Z,9.43
2022-10-31T01:51:54.337Z,9.49
2022-10-31T01:52:54.312Z,9.35
2022-10-31T01:53:54.295Z,9.42
2022-10-31T01:54:54.266Z,9.35
2022-10-31T01:55:54.242Z,9.38
2022-10-31T01:56:54.311Z,9.48
2022-10-31T01:57:54.194Z,9.43
2022-10-31T01:58:54.173Z,9.56
2022-10-31T01:59:54.150Z,9.53
2022-10-31T02:00:54.155Z,9.58
2022-10-31T02:01:54.244Z,9.49
2022-10-31T02:02:54.076Z,9.49
2022-10-31T02:03:54.054Z,9.56
2022-10-31T02:04:54.040Z,9.46
2022-10-31T02:05:54.001Z,9.49
2022-10-31T02:06:53.989Z,9.58
2022-10-31T02:07:53.953Z,9.67
2022-10-31T02:08:53.933Z,9.78
2022-10-31T02:09:53.916Z,9.79
2022-10-31T02:10:53.887Z,9.79
2022-10-31T02:11:53.857Z,9.85
2022-10-31T02:12:53.835Z,9.76
2022-10-31T02:13:53.815Z,9.67
2022-10-31T02:14:53.801Z,9.66
2022-10-31T02:15:53.768Z,9.68
2022-10-31T02:16:53.763Z,9.61
2022-10-31T02:17:53.722Z,9.58
2022-10-31T02:18:53.700Z,9.61
2022-10-31T02:19:53.674Z,9.53
2022-10-31T02:20:53.646Z,9.58
2022-10-31T02:21:53.622Z,9.57
2022-10-31T02:22:53.597Z,9.60
2022-10-31T02:23:53.590Z,9.66
2022-10-31T02:24:53.554Z,9.81
2022-10-31T02:25:53.530Z,9.85
2022-10-31T02:26:53.505Z,9.94
2022-10-31T02:27:53.487Z,9.86
2022-10-31T02:28:53.462Z,9.91
2022-10-31T02:29:53.436Z,9.89
2022-10-31T02:30:53.414Z,9.89
2022-10-31T02:31:53.390Z,9.82
2022-10-31T02:32:53.368Z,9.91
2022-10-31T02:33:53.355Z,10.01
2022-10-31T02:34:53.313Z,10.03
2022-10-31T02:35:53.291Z,9.93
2022-10-31T02:36:53.271Z,10.04
2022-10-31T02:37:53.247Z,9.96
2022-10-31T02:38:53.233Z,9.99
2022-10-31T02:39:53.199Z,9.99
2022-10-31T02:40:53.176Z,10.03
2022-10-31T02:41:53.153Z,10.09
2022-10-31T02:42:53.200Z,10.14
2022-10-31T02:43:53.119Z,10.25
2022-10-31T02:44:53.094Z,10.26
2022-10-31T02:45:53.058Z,10.28
2022-10-31T02:46:53.032Z,10.37
2022-10-31T02:47:53.043Z,10.32
2022-10-31T02:48:52.990Z,10.30
2022-10-31T02:49:52.972Z,10.32
2022-10-31T02:50:52.949Z,10.25
2022-10-31T02:51:52.919Z,10.30
2022-10-31T02:52:52.905Z,10.32
2022-10-31T02:53:52.869Z,10.25
2022-10-31T02:54:52.850Z,10.22
2022-10-31T02:55:52.822Z,10.19
2022-10-31T02:56:52.799Z,10.25
2022-10-31T02:57:52.774Z,10.15
2022-10-31T02:58:52.752Z,10.18
2022-10-31T02:59:52.732Z,10.24
2022-10-31T03:00:52.938Z,10.25
2022-10-31T03:01:52.843Z,10.24
2022-10-31T03:02:52.659Z,10.21
2022-10-31T03:03:52.635Z,10.32
2022-10-31T03:04:52.611Z,10.34
2022-10-31T03:05:52.591Z,10.21
2022-10-31T03:06:52.562Z,10.33
2022-10-31T03:07:52.543Z,10.22
2022-10-31T03:08:52.513Z,10.19
2022-10-31T03:09:52.496Z,10.06
2022-10-31T03:10:52.466Z,9.96
2022-10-31T03:11:52.443Z,10.00
2022-10-31T03:12:52.427Z,10.09
2022-10-31T03:13:52.402Z,10.14
2022-10-31T03:14:52.392Z,10.30
2022-10-31T03:15:52.371Z,10.24
2022-10-31T03:16:52.344Z,10.32
2022-10-31T03:17:52.326Z,10.18
2022-10-31T03:18:52.306Z,10.14
2022-10-31T03:19:52.283Z,10.14
2022-10-31T03:20:52.232Z,10.06
2022-10-31T03:21:52.215Z,10.09
2022-10-31T03:22:52.193Z,10.00
2022-10-31T03:23:52.165Z,10.01
2022-10-31T03:24:52.142Z,9.97
2022-10-31T03:25:52.129Z,10.03
2022-10-31T03:26:52.101Z,10.06
2022-10-31T03:27:52.081Z,9.99
2022-10-31T03:28:52.048Z,10.10
2022-10-31T03:29:52.022Z,10.15
2022-10-31T03:30:52.035Z,10.14
2022-10-31T03:31:51.986Z,10.04
2022-10-31T03:32:53.216Z,10.06
2022-10-31T03:33:51.937Z,10.00
2022-10-31T03:34:51.920Z,9.89
2022-10-31T03:35:51.883Z,9.86
2022-10-31T03:36:51.866Z,9.82
2022-10-31T03:37:51.843Z,9.75
2022-10-31T03:38:51.810Z,9.82
2022-10-31T03:39:51.800Z,9.79
2022-10-31T03:40:51.764Z,9.81
2022-10-31T03:41:51.741Z,9.79
2022-10-31T03:42:51.716Z,9.79
2022-10-31T03:43:51.694Z,9.82
2022-10-31T03:44:51.673Z,9.64
2022-10-31T03:45:51.651Z,9.73
2022-10-31T03:46:51.622Z,9.68
2022-10-31T03:47:51.605Z,9.63
2022-10-31T03:48:51.571Z,9.66
2022-10-31T03:49:51.547Z,9.66
2022-10-31T03:50:51.525Z,9.76
2022-10-31T03:51:51.500Z,9.75
2022-10-31T03:52:51.489Z,9.79
2022-10-31T03:53:51.461Z,9.78
2022-10-31T03:54:51.438Z,9.78
2022-10-31T03:55:51.417Z,9.64
2022-10-31T03:56:51.385Z,9.64
2022-10-31T03:57:51.364Z,9.64
2022-10-31T03:58:51.340Z,9.68
2022-10-31T03:59:51.316Z,9.82
2022-10-31T04:00:51.299Z,9.82
2022-10-31T04:01:51.375Z,9.86
2022-10-31T04:02:51.243Z,9.89
2022-10-31T04:03:51.218Z,9.89
2022-10-31T04:04:51.195Z,9.82
2022-10-31T04:05:51.171Z,9.99
2022-10-31T04:06:51.144Z,10.12
2022-10-31T04:07:51.127Z,10.07
2022-10-31T04:08:51.099Z,10.14
2022-10-31T04:09:51.077Z,10.12
2022-10-31T04:10:51.052Z,10.09
2022-10-31T04:11:51.035Z,10.09
2022-10-31T04:12:51.009Z,10.15
2022-10-31T04:13:50.983Z,10.14
2022-10-31T04:14:50.985Z,10.15
2022-10-31T04:15:50.931Z,10.10
2022-10-31T04:16:50.910Z,10.18
2022-10-31T04:17:50.886Z,10.18
2022-10-31T04:18:50.861Z,10.12
2022-10-31T04:19:50.848Z,10.12
2022-10-31T04:20:50.819Z,10.07
2022-10-31T04:21:50.824Z,10.03
2022-10-31T04:22:50.772Z,9.99
2022-10-31T04:23:50.746Z,9.96
2022-10-31T04:24:50.726Z,9.97
2022-10-31T04:25:50.697Z,9.85
2022-10-31T04:26:50.676Z,9.88
2022-10-31T04:27:50.654Z,9.85
2022-10-31T04:28:50.624Z,9.88
2022-10-31T04:29:51.056Z,9.88
2022-10-31T04:30:50.580Z,9.88
2022-10-31T04:31:50.618Z,10.03
2022-10-31T04:32:50.544Z,9.99
2022-10-31T04:33:50.687Z,10.00
2022-10-31T04:34:50.508Z,10.15
2022-10-31T04:35:50.462Z,10.06
2022-10-31T04:36:50.444Z,10.14
2022-10-31T04:37:50.420Z,10.06
2022-10-31T04:38:50.424Z,10.15
2022-10-31T04:39:50.374Z,9.96
2022-10-31T04:40:50.346Z,9.85
2022-10-31T04:41:50.339Z,9.89
2022-10-31T04:42:50.304Z,9.94
2022-10-31T04:43:50.281Z,10.03
2022-10-31T04:44:50.251Z,10.03
2022-10-31T04:45:50.228Z,10.07
2022-10-31T04:46:50.203Z,10.10
2022-10-31T04:47:50.179Z,10.06
2022-10-31T04:48:50.163Z,10.04
2022-10-31T04:49:50.137Z,9.94
2022-10-31T04:50:50.107Z,10.00
2022-10-31T04:51:50.096Z,9.85
2022-10-31T04:52:50.069Z,9.88
2022-10-31T04:53:50.037Z,9.89
2022-10-31T04:54:50.016Z,9.85
2022-10-31T04:55:49.992Z,9.83
2022-10-31T04:56:49.976Z,9.99
2022-10-31T04:57:49.945Z,9.99
2022-10-31T04:58:49.945Z,10.03
2022-10-31T04:59:49.929Z,10.01
2022-10-31T05:00:49.917Z,10.04
2022-10-31T05:01:49.994Z,9.99
2022-10-31T05:02:49.831Z,10.00
2022-10-31T05:03:49.804Z,9.93
2022-10-31T05:04:49.777Z,9.85
2022-10-31T05:05:49.755Z,9.82
2022-10-31T05:06:49.737Z,9.83
2022-10-31T05:07:49.717Z,9.79
2022-10-31T05:08:49.688Z,9.76
2022-10-31T05:09:49.662Z,9.81
2022-10-31T05:10:49.639Z,9.85
2022-10-31T05:11:49.613Z,9.85
2022-10-31T05:12:49.600Z,9.81
2022-10-31T05:13:49.567Z,9.81
2022-10-31T05:14:49.544Z,9.79
2022-10-31T05:15:49.525Z,9.81
2022-10-31T05:16:49.496Z,9.79
2022-10-31T05:17:49.470Z,9.91
2022-10-31T05:18:49.454Z,9.97
2022-10-31T05:19:49.423Z,10.06
2022-10-31T05:20:49.405Z,10.07
2022-10-31T05:21:49.380Z,10.10
2022-10-31T05:22:49.351Z,10.07
2022-10-31T05:23:49.333Z,10.01
2022-10-31T05:24:49.307Z,10.07
2022-10-31T05:25:49.301Z,9.88
2022-10-31T05:26:49.259Z,9.83
2022-10-31T05:27:49.237Z,9.78
2022-10-31T05:28:49.214Z,9.70
2022-10-31T05:29:49.277Z,9.66
2022-10-31T05:30:49.166Z,9.63
2022-10-31T05:31:49.141Z,9.63
2022-10-31T05:32:49.119Z,9.61
2022-10-31T05:33:49.092Z,9.58
2022-10-31T05:34:49.074Z,9.56
2022-10-31T05:35:49.043Z,9.75
2022-10-31T05:36:49.019Z,9.73
2022-10-31T05:37:49.002Z,9.78
2022-10-31T05:38:48.975Z,9.73
2022-10-31T05:39:48.952Z,9.78
2022-10-31T05:40:48.935Z,9.78
2022-10-31T05:41:48.900Z,9.68
2022-10-31T05:42:48.923Z,9.79
2022-10-31T05:43:48.858Z,9.83
2022-10-31T05:44:48.831Z,9.79
2022-10-31T05:45:48.807Z,9.76
2022-10-31T05:46:48.785Z,9.66
2022-10-31T05:47:48.759Z,9.61
2022-10-31T05:48:48.738Z,9.61
2022-10-31T05:49:48.714Z,9.57
2022-10-31T05:50:48.688Z,9.70
2022-10-31T05:51:48.675Z,9.61
2022-10-31T05:52:48.651Z,9.68
2022-10-31T05:53:48.624Z,9.60
2022-10-31T05:54:48.601Z,9.56
2022-10-31T05:55:48.575Z,9.49
2022-10-31T05:56:48.549Z,9.52
2022-10-31T05:57:48.525Z,9.43
2022-10-31T05:58:48.501Z,9.50
2022-10-31T05:59:52.420Z,9.46
2022-10-31T06:00:48.454Z,9.40
2022-10-31T06:01:48.448Z,9.34
2022-10-31T06:02:48.429Z,9.25
2022-10-31T06:03:48.446Z,9.27
2022-10-31T06:04:48.379Z,9.25
2022-10-31T06:05:52.288Z,9.27
2022-10-31T06:06:48.308Z,9.20
2022-10-31T06:07:48.289Z,9.21
2022-10-31T06:08:48.258Z,9.20
2022-10-31T06:09:48.241Z,9.12
2022-10-31T06:10:48.214Z,9.06
2022-10-31T06:11:48.206Z,9.05
2022-10-31T06:12:48.177Z,9.13
2022-10-31T06:13:48.139Z,9.09
2022-10-31T06:14:48.115Z,9.06
2022-10-31T06:15:48.101Z,9.04
2022-10-31T06:16:48.076Z,9.10
2022-10-31T06:17:48.046Z,9.10
2022-10-31T06:18:48.030Z,9.09
2022-10-31T06:19:48.005Z,9.16
2022-10-31T06:20:47.975Z,9.23
2022-10-31T06:21:47.955Z,9.16
2022-10-31T06:22:47.938Z,9.21
2022-10-31T06:23:47.904Z,9.24
2022-10-31T06:24:47.882Z,9.15
2022-10-31T06:25:47.861Z,9.16
2022-10-31T06:26:47.832Z,9.16
2022-10-31T06:27:47.806Z,9.15
2022-10-31T06:28:47.780Z,9.05
2022-10-31T06:29:47.766Z,9.10
2022-10-31T06:30:47.745Z,9.12
2022-10-31T06:31:47.724Z,9.10
2022-10-31T06:32:47.685Z,9.02
2022-10-31T06:33:47.665Z,8.99
2022-10-31T06:34:47.640Z,8.94
2022-10-31T06:35:47.616Z,8.96
2022-10-31T06:36:47.593Z,8.91
2022-10-31T06:37:50.449Z,8.90
2022-10-31T06:38:47.551Z,8.96
2022-10-31T06:39:47.519Z,8.91
2022-10-31T06:40:47.498Z,8.96
2022-10-31T06:41:47.487Z,8.88
2022-10-31T06:42:47.447Z,8.88
2022-10-31T06:43:47.444Z,8.97
2022-10-31T06:44:47.402Z,8.86
2022-10-31T06:45:47.381Z,9.05
2022-10-31T06:46:47.360Z,9.04
2022-10-31T06:48:15.359Z,9.16
2022-10-31T06:48:47.308Z,9.25
2022-10-31T06:49:47.280Z,9.40
2022-10-31T06:50:47.257Z,9.42
2022-10-31T06:51:47.235Z,9.48
2022-10-31T06:52:47.208Z,9.50
2022-10-31T06:53:47.190Z,9.49
2022-10-31T06:54:47.165Z,9.63
2022-10-31T06:55:47.143Z,9.53
2022-10-31T06:56:47.110Z,9.63
2022-10-31T06:57:47.101Z,9.67
2022-10-31T06:58:47.070Z,9.71
2022-10-31T06:59:47.044Z,9.61
2022-10-31T07:00:47.039Z,9.57
2022-10-31T07:01:47.167Z,9.61
2022-10-31T07:02:46.971Z,9.57
2022-10-31T07:03:46.949Z,9.56
2022-10-31T07:04:46.929Z,9.70
2022-10-31T07:05:46.900Z,9.58
2022-10-31T07:06:51.660Z,9.64
2022-10-31T07:07:46.858Z,9.67
2022-10-31T07:08:46.828Z,9.76
2022-10-31T07:09:46.809Z,9.83
2022-10-31T07:10:46.780Z,9.85
2022-10-31T07:11:46.755Z,9.97
2022-10-31T07:12:46.731Z,10.01
2022-10-31T07:13:46.711Z,10.04
2022-10-31T07:14:46.686Z,10.09
2022-10-31T07:15:46.665Z,10.22
2022-10-31T07:16:46.638Z,10.21
2022-10-31T07:17:46.619Z,10.21
2022-10-31T07:18:46.592Z,10.30
2022-10-31T07:19:46.567Z,10.36
2022-10-31T07:20:46.548Z,10.39
2022-10-31T07:21:46.525Z,10.42
2022-10-31T07:22:50.462Z,10.53
2022-10-31T07:23:46.484Z,10.52
2022-10-31T07:24:46.455Z,10.55
2022-10-31T07:25:46.442Z,10.60
2022-10-31T07:26:46.470Z,10.70
2022-10-31T07:27:46.381Z,10.68
2022-10-31T07:28:46.359Z,10.83
2022-10-31T07:29:46.336Z,10.77
2022-10-31T07:30:46.322Z,10.91
2022-10-31T07:31:46.287Z,11.01
2022-10-31T07:32:46.266Z,11.19
2022-10-31T07:33:46.244Z,11.19
2022-10-31T07:34:47.550Z,11.24
2022-10-31T07:35:46.220Z,11.21
2022-10-31T07:36:46.171Z,11.21
2022-10-31T07:37:46.151Z,11.25
2022-10-31T07:38:46.240Z,11.34
2022-10-31T07:39:46.105Z,11.44
2022-10-31T07:40:46.093Z,11.68
2022-10-31T07:41:46.060Z,11.85
2022-10-31T07:42:46.035Z,12.02
2022-10-31T07:43:46.289Z,12.30
2022-10-31T07:44:45.993Z,12.59
2022-10-31T07:45:45.967Z,12.87
2022-10-31T07:46:45.941Z,13.12
2022-10-31T07:47:45.919Z,13.49
2022-10-31T07:48:45.905Z,13.71
2022-10-31T07:49:45.874Z,13.95
2022-10-31T07:50:45.854Z,14.42
2022-10-31T07:51:46.732Z,14.84
2022-10-31T07:52:45.806Z,15.38
2022-10-31T07:53:45.783Z,15.61
2022-10-31T07:54:45.762Z,15.61
2022-10-31T07:55:45.749Z,16.09
2022-10-31T07:56:45.731Z,16.18
2022-10-31T07:57:45.695Z,16.38
2022-10-31T07:58:45.697Z,16.38
2022-10-31T07:59:45.655Z,16.06
2022-10-31T08:00:45.798Z,15.92
2022-10-31T08:01:45.615Z,15.67
2022-10-31T08:02:45.588Z,15.27
2022-10-31T08:03:45.571Z,14.93
2022-10-31T08:04:45.554Z,14.81
2022-10-31T08:05:45.527Z,14.88
2022-10-31T08:06:45.502Z,15.03
2022-10-31T08:07:45.511Z,15.19
2022-10-31T08:08:45.483Z,15.61
2022-10-31T08:09:45.442Z,15.89
2022-10-31T08:10:45.423Z,16.35
2022-10-31T08:11:45.405Z,16.44
2022-10-31T08:12:45.388Z,16.75
2022-10-31T08:13:45.367Z,16.90
2022-10-31T08:14:45.338Z,17.00
2022-10-31T08:15:45.323Z,17.10
2022-10-31T08:16:45.295Z,17.04
2022-10-31T08:17:45.285Z,16.96
2022-10-31T08:18:45.261Z,17.23
2022-10-31T08:19:45.237Z,17.47
2022-10-31T08:20:45.225Z,17.59
2022-10-31T08:21:45.201Z,17.71
2022-10-31T08:22:45.180Z,17.66
2022-10-31T08:23:45.165Z,17.23
2022-10-31T08:24:45.160Z,17.00
2022-10-31T08:25:45.119Z,16.86
2022-10-31T08:26:45.117Z,16.80
2022-10-31T08:27:45.094Z,16.73
2022-10-31T08:28:45.070Z,16.58
2022-10-31T08:29:45.049Z,16.45
2022-10-31T08:30:45.029Z,16.37
2022-10-31T08:31:45.010Z,16.18
2022-10-31T08:32:45.004Z,16.25
2022-10-31T08:33:44.974Z,16.40
2022-10-31T08:34:44.958Z,16.48
2022-10-31T08:35:44.938Z,16.42
2022-10-31T08:36:44.918Z,16.38
2022-10-31T08:37:44.899Z,16.31
2022-10-31T08:38:44.889Z,16.35
2022-10-31T08:39:44.866Z,16.25
2022-10-31T08:40:44.839Z,16.22
2022-10-31T08:41:44.825Z,16.20
2022-10-31T08:42:44.808Z,16.16
2022-10-31T08:43:44.796Z,16.11
2022-10-31T08:44:44.769Z,16.01
2022-10-31T08:45:44.749Z,15.86
2022-10-31T08:46:44.733Z,15.88
2022-10-31T08:47:44.715Z,16.04
2022-10-31T08:48:44.692Z,16.20
2022-10-31T08:49:44.698Z,16.09
2022-10-31T08:50:44.659Z,16.09
2022-10-31T08:51:44.640Z,16.09
2022-10-31T08:53:04.168Z,16.09
2022-10-31T08:53:44.604Z,16.27
2022-10-31T08:54:44.582Z,16.20
2022-10-31T08:55:44.577Z,16.09
2022-10-31T08:56:44.550Z,16.15
2022-10-31T08:57:44.528Z,16.16
2022-10-31T08:58:44.505Z,16.31
2022-10-31T08:59:44.490Z,16.40
2022-10-31T09:00:44.558Z,16.50
2022-10-31T09:01:44.575Z,16.68
2022-10-31T09:02:44.433Z,16.85
2022-10-31T09:03:44.422Z,16.70
2022-10-31T09:04:44.400Z,16.56
2022-10-31T09:05:44.443Z,16.52
2022-10-31T09:07:07.958Z,16.49
2022-10-31T09:07:44.351Z,16.42
2022-10-31T09:08:44.324Z,16.48
2022-10-31T09:09:44.310Z,16.60
2022-10-31T09:10:44.315Z,16.68
2022-10-31T09:11:44.276Z,16.65
2022-10-31T09:12:44.259Z,16.71
2022-10-31T09:13:44.239Z,16.77
2022-10-31T09:14:44.226Z,16.68
2022-10-31T09:15:44.201Z,16.71
2022-10-31T09:16:44.186Z,16.67
2022-10-31T09:17:44.166Z,16.50
2022-10-31T09:18:44.148Z,16.49
2022-10-31T09:19:44.135Z,16.35
2022-10-31T09:20:44.118Z,16.41
2022-10-31T09:21:44.104Z,16.31
2022-10-31T09:22:44.077Z,16.53
2022-10-31T09:23:44.063Z,16.78
2022-10-31T09:24:44.044Z,16.88
2022-10-31T09:25:47.683Z,16.83
2022-10-31T09:26:44.009Z,16.92
2022-10-31T09:27:43.987Z,17.00
2022-10-31T09:28:43.972Z,16.99
2022-10-31T09:29:43.956Z,17.11
2022-10-31T09:30:43.940Z,17.20
2022-10-31T09:31:45.225Z,17.29
2022-10-31T09:32:43.907Z,17.43
2022-10-31T09:33:43.886Z,17.64
2022-10-31T09:34:43.880Z,17.81
2022-10-31T09:35:43.863Z,17.84
2022-10-31T09:36:43.837Z,17.78
2022-10-31T09:37:43.835Z,17.50
2022-10-31T09:38:43.797Z,17.25
2022-10-31T09:39:43.790Z,17.00
2022-10-31T09:40:43.761Z,16.83
2022-10-31T09:41:43.745Z,16.67
2022-10-31T09:42:43.731Z,16.85
2022-10-31T09:43:43.712Z,16.86
2022-10-31T09:44:43.709Z,16.96
2022-10-31T09:45:43.676Z,17.17
2022-10-31T09:46:43.657Z,17.53
2022-10-31T09:47:43.647Z,17.87
2022-10-31T09:48:43.621Z,18.07
2022-10-31T09:49:43.636Z,18.37
2022-10-31T09:50:43.588Z,18.39
2022-10-31T09:51:43.586Z,18.25
2022-10-31T09:52:43.557Z,17.99
2022-10-31T09:53:43.542Z,18.24
2022-10-31T09:54:43.520Z,18.43
2022-10-31T09:55:43.503Z,18.59
2022-10-31T09:56:43.485Z,18.37
2022-10-31T09:57:43.476Z,18.33
2022-10-31T09:58:43.454Z,18.22
2022-10-31T09:59:43.441Z,18.49
2022-10-31T10:00:43.465Z,18.86
2022-10-31T10:01:43.528Z,18.95
2022-10-31T10:02:43.390Z,18.95
2022-10-31T10:03:43.379Z,19.13
2022-10-31T10:04:43.358Z,19.11
2022-10-31T10:05:43.364Z,19.11
2022-10-31T10:06:43.319Z,19.25
2022-10-31T10:07:43.323Z,19.33
2022-10-31T10:08:43.289Z,19.36
2022-10-31T10:09:43.275Z,19.25
2022-10-31T10:10:43.263Z,19.10
2022-10-31T10:11:43.246Z,19.17
2022-10-31T10:12:43.224Z,19.53
2022-10-31T10:13:43.211Z,19.46
2022-10-31T10:14:43.194Z,19.33
2022-10-31T10:15:43.209Z,19.29
2022-10-31T10:16:43.169Z,19.38
2022-10-31T10:17:43.151Z,19.42
2022-10-31T10:18:43.134Z,19.18
2022-10-31T10:19:43.118Z,19.24
2022-10-31T10:20:43.105Z,19.15
2022-10-31T10:21:43.092Z,19.06
2022-10-31T10:22:43.072Z,19.14
2022-10-31T10:23:43.057Z,19.02
2022-10-31T10:24:43.040Z,19.21
2022-10-31T10:25:43.030Z,19.17
2022-10-31T10:26:43.014Z,19.08
2022-10-31T10:27:43.001Z,19.08
2022-10-31T10:28:42.982Z,18.94
2022-10-31T10:29:42.969Z,19.10
2022-10-31T10:30:42.972Z,19.18
2022-10-31T10:31:42.967Z,19.10
2022-10-31T10:32:46.573Z,18.95
2022-10-31T10:33:42.907Z,19.01
2022-10-31T10:34:42.895Z,19.23
2022-10-31T10:35:42.887Z,19.42
2022-10-31T10:36:42.865Z,19.73
2022-10-31T10:37:42.850Z,19.76
2022-10-31T10:38:42.836Z,19.83
2022-10-31T10:39:42.820Z,19.78
2022-10-31T10:40:42.800Z,19.68
2022-10-31T10:41:42.789Z,19.61
2022-10-31T10:42:42.776Z,19.57
2022-10-31T10:43:42.892Z,19.48
2022-10-31T10:44:42.750Z,19.39
2022-10-31T10:45:42.737Z,19.32
2022-10-31T10:46:42.716Z,19.35
2022-10-31T10:47:42.719Z,19.53
2022-10-31T10:48:42.686Z,19.58
2022-10-31T10:49:42.676Z,19.55
2022-10-31T10:50:42.666Z,19.53
2022-10-31T10:52:18.942Z,19.58
2022-10-31T10:52:47.577Z,19.50
2022-10-31T10:53:42.617Z,19.66
2022-10-31T10:54:42.607Z,19.79
2022-10-31T10:55:42.594Z,19.90
2022-10-31T10:56:42.572Z,20.08
2022-10-31T10:57:42.565Z,20.31
2022-10-31T10:58:42.556Z,20.69
2022-10-31T10:59:42.529Z,21.01
2022-10-31T11:00:42.612Z,21.24
2022-10-31T11:01:42.505Z,20.99
2022-10-31T11:02:45.073Z,20.93
2022-10-31T11:03:42.478Z,20.61
2022-10-31T11:04:42.464Z,20.54
2022-10-31T11:05:42.452Z,20.77
2022-10-31T11:06:42.436Z,20.99
2022-10-31T11:07:42.439Z,21.29
2022-10-31T11:08:42.411Z,21.59
2022-10-31T11:09:42.400Z,21.50
2022-10-31T11:10:42.392Z,21.59
2022-10-31T11:11:42.368Z,21.78
2022-10-31T11:12:42.367Z,21.67
2022-10-31T11:13:42.365Z,21.60
2022-10-31T11:14:42.334Z,21.35
2022-10-31T11:15:42.328Z,21.35
2022-10-31T11:16:42.307Z,21.26
2022-10-31T11:17:42.318Z,21.29
2022-10-31T11:18:42.286Z,21.46
2022-10-31T11:19:42.269Z,21.39
2022-10-31T11:20:42.259Z,21.36
2022-10-31T11:21:42.249Z,21.41
2022-10-31T11:22:42.232Z,21.57
2022-10-31T11:23:42.226Z,21.48
2022-10-31T11:24:42.207Z,21.42
2022-10-31T11:25:42.202Z,21.38
2022-10-31T11:26:42.183Z,21.51
2022-10-31T11:27:42.171Z,21.29
2022-10-31T11:28:42.168Z,21.09
2022-10-31T11:29:42.150Z,21.14
2022-10-31T11:30:42.161Z,21.14
2022-10-31T11:31:42.129Z,21.26
2022-10-31T11:32:42.110Z,21.23
2022-10-31T11:33:42.098Z,21.24
2022-10-31T11:34:42.102Z,21.27
2022-10-31T11:35:42.078Z,21.21
2022-10-31T11:36:42.061Z,21.23
2022-10-31T11:37:42.057Z,21.20
2022-10-31T11:38:42.036Z,21.23
2022-10-31T11:39:42.025Z,21.06
2022-10-31T11:40:42.020Z,20.96
2022-10-31T11:41:41.998Z,20.83
2022-10-31T11:42:41.985Z,20.68
2022-10-31T11:43:41.972Z,20.74
2022-10-31T11:44:41.980Z,20.74
2022-10-31T11:45:41.943Z,20.72
2022-10-31T11:46:41.931Z,20.86
2022-10-31T11:47:41.921Z,20.95
2022-10-31T11:48:41.908Z,20.90
2022-10-31T11:49:41.896Z,20.65
2022-10-31T11:50:41.879Z,20.58
2022-10-31T11:51:41.867Z,20.43
2022-10-31T11:52:41.857Z,20.46
2022-10-31T11:53:41.837Z,20.42
2022-10-31T11:54:41.825Z,20.25
2022-10-31T11:55:41.814Z,20.21
2022-10-31T11:56:41.817Z,20.03
2022-10-31T11:57:41.796Z,20.03
2022-10-31T11:58:41.783Z,19.83
2022-10-31T11:59:41.758Z,19.76
2022-10-31T12:00:41.740Z,19.76
2022-10-31T12:01:44.995Z,19.68
2022-10-31T12:02:41.824Z,19.70
2022-10-31T12:03:41.705Z,19.78
2022-10-31T12:04:41.706Z,19.75
2022-10-31T12:05:41.672Z,19.79
2022-10-31T12:06:41.670Z,19.80
2022-10-31T12:07:41.654Z,19.78
2022-10-31T12:08:41.642Z,19.73
2022-10-31T12:09:41.619Z,19.88
2022-10-31T12:10:41.610Z,19.98
2022-10-31T12:11:41.582Z,20.15
2022-10-31T12:12:41.585Z,20.31
2022-10-31T12:13:41.550Z,20.28
2022-10-31T12:14:41.570Z,20.39
2022-10-31T12:15:41.559Z,20.50
2022-10-31T12:16:41.515Z,20.56
2022-10-31T12:17:41.533Z,20.58
2022-10-31T12:18:41.493Z,20.56
2022-10-31T12:19:41.484Z,20.72
2022-10-31T12:20:41.480Z,20.77
2022-10-31T12:21:41.446Z,20.86
2022-10-31T12:22:41.427Z,20.96
2022-10-31T12:23:41.411Z,21.08
2022-10-31T12:24:41.397Z,21.08
2022-10-31T12:25:41.396Z,21.21
2022-10-31T12:26:41.369Z,21.20
2022-10-31T12:27:41.357Z,21.23
2022-10-31T12:28:44.932Z,21.20
2022-10-31T12:29:41.346Z,21.04
2022-10-31T12:30:41.314Z,21.11
2022-10-31T12:31:41.305Z,21.13
2022-10-31T12:32:41.302Z,21.24
2022-10-31T12:33:41.275Z,21.32
2022-10-31T12:34:46.145Z,21.23
2022-10-31T12:35:41.268Z,21.19
2022-10-31T12:36:41.242Z,21.29
2022-10-31T12:37:41.223Z,21.20
2022-10-31T12:38:41.221Z,21.27
2022-10-31T12:39:41.194Z,21.34
2022-10-31T12:40:41.180Z,21.29
2022-10-31T12:41:41.175Z,21.29
2022-10-31T12:42:41.154Z,21.20
2022-10-31T12:43:41.139Z,21.27
2022-10-31T12:44:41.131Z,21.29
2022-10-31T12:45:41.124Z,21.29
2022-10-31T12:46:41.111Z,21.32
2022-10-31T12:47:41.087Z,21.34
2022-10-31T12:48:41.078Z,21.32
2022-10-31T12:49:41.061Z,21.32
2022-10-31T12:50:41.045Z,21.23
2022-10-31T12:51:41.035Z,21.30
2022-10-31T12:52:41.022Z,21.26
2022-10-31T12:53:41.023Z,21.16
2022-10-31T12:54:44.020Z,20.98
2022-10-31T12:55:40.978Z,20.77
2022-10-31T12:56:40.968Z,20.76
2022-10-31T12:57:40.951Z,20.71
2022-10-31T12:58:40.938Z,20.74
2022-10-31T12:59:40.924Z,20.68
2022-10-31T13:00:40.949Z,20.71
2022-10-31T13:01:40.971Z,20.80